sensor_id;sensor_type;location;lat;lon;timestamp;temperature;humidity
23813;DHT22;12087;45.190;5.688;2023-06-26T00:04:56;23.20;95.40
23813;DHT22;12087;45.190;5.688;2023-06-26T00:10:18;23.20;95.60
23813;DHT22;12087;45.190;5.688;2023-06-26T00:15:41;23.20;95.60
23813;DHT22;12087;45.190;5.688;2023-06-26T00:21:04;23.10;96.20
23813;DHT22;12087;45.190;5.688;2023-06-26T00:26:27;23.10;96.00
23813;DHT22;12087;45.190;5.688;2023-06-26T00:31:49;23.10;96.30
23813;DHT22;12087;45.190;5.688;2023-06-26T00:37:12;23.10;96.40
23813;DHT22;12087;45.190;5.688;2023-06-26T00:42:35;23.00;96.70
23813;DHT22;12087;45.190;5.688;2023-06-26T00:47:57;23.00;97.70
23813;DHT22;12087;45.190;5.688;2023-06-26T00:53:21;22.90;98.00
23813;DHT22;12087;45.190;5.688;2023-06-26T00:58:44;22.80;97.70
23813;DHT22;12087;45.190;5.688;2023-06-26T01:04:07;22.80;97.70
23813;DHT22;12087;45.190;5.688;2023-06-26T01:09:39;22.70;98.20
23813;DHT22;12087;45.190;5.688;2023-06-26T01:15:02;22.70;98.10
23813;DHT22;12087;45.190;5.688;2023-06-26T01:20:25;22.70;98.80
23813;DHT22;12087;45.190;5.688;2023-06-26T01:26:05;22.60;99.00
23813;DHT22;12087;45.190;5.688;2023-06-26T01:31:28;22.60;98.60
23813;DHT22;12087;45.190;5.688;2023-06-26T01:36:52;22.60;98.10
23813;DHT22;12087;45.190;5.688;2023-06-26T01:42:15;22.50;98.80
23813;DHT22;12087;45.190;5.688;2023-06-26T01:47:40;22.50;99.10
23813;DHT22;12087;45.190;5.688;2023-06-26T01:53:07;22.40;99.70
23813;DHT22;12087;45.190;5.688;2023-06-26T01:58:34;22.40;99.90
23813;DHT22;12087;45.190;5.688;2023-06-26T02:03:57;22.30;99.90
23813;DHT22;12087;45.190;5.688;2023-06-26T02:09:19;22.20;99.90
23813;DHT22;12087;45.190;5.688;2023-06-26T02:14:43;22.20;99.90
23813;DHT22;12087;45.190;5.688;2023-06-26T02:20:06;22.20;99.90
23813;DHT22;12087;45.190;5.688;2023-06-26T02:25:30;22.10;99.90
23813;DHT22;12087;45.190;5.688;2023-06-26T02:30:55;22.10;99.90
23813;DHT22;12087;45.190;5.688;2023-06-26T02:36:17;22.00;99.90
23813;DHT22;12087;45.190;5.688;2023-06-26T02:41:39;22.00;99.90
23813;DHT22;12087;45.190;5.688;2023-06-26T02:47:03;22.00;99.90
23813;DHT22;12087;45.190;5.688;2023-06-26T02:52:25;21.90;99.90
23813;DHT22;12087;45.190;5.688;2023-06-26T02:57:49;21.90;99.90
23813;DHT22;12087;45.190;5.688;2023-06-26T03:03:13;21.80;99.90
23813;DHT22;12087;45.190;5.688;2023-06-26T03:08:36;21.70;99.90
23813;DHT22;12087;45.190;5.688;2023-06-26T03:13:59;21.70;99.90
23813;DHT22;12087;45.190;5.688;2023-06-26T03:19:23;21.60;99.90
23813;DHT22;12087;45.190;5.688;2023-06-26T03:24:45;21.50;99.90
23813;DHT22;12087;45.190;5.688;2023-06-26T03:30:08;21.50;99.90
23813;DHT22;12087;45.190;5.688;2023-06-26T03:35:32;21.50;99.90
23813;DHT22;12087;45.190;5.688;2023-06-26T03:40:54;21.50;99.90
23813;DHT22;12087;45.190;5.688;2023-06-26T03:46:16;21.50;99.90
23813;DHT22;12087;45.190;5.688;2023-06-26T03:51:40;21.50;99.90
23813;DHT22;12087;45.190;5.688;2023-06-26T03:57:02;21.40;99.90
23813;DHT22;12087;45.190;5.688;2023-06-26T04:02:24;21.40;99.90
23813;DHT22;12087;45.190;5.688;2023-06-26T04:07:51;21.40;99.90
23813;DHT22;12087;45.190;5.688;2023-06-26T04:13:13;21.30;99.90
23813;DHT22;12087;45.190;5.688;2023-06-26T04:18:35;21.20;99.90
23813;DHT22;12087;45.190;5.688;2023-06-26T04:23:59;21.30;99.90
23813;DHT22;12087;45.190;5.688;2023-06-26T04:29:21;21.20;99.90
23813;DHT22;12087;45.190;5.688;2023-06-26T04:34:46;21.20;99.90
23813;DHT22;12087;45.190;5.688;2023-06-26T04:40:10;21.10;99.90
23813;DHT22;12087;45.190;5.688;2023-06-26T04:45:32;21.10;99.90
23813;DHT22;12087;45.190;5.688;2023-06-26T04:50:56;21.10;99.90
23813;DHT22;12087;45.190;5.688;2023-06-26T04:56:20;21.10;99.90
23813;DHT22;12087;45.190;5.688;2023-06-26T05:01:43;21.10;99.90
23813;DHT22;12087;45.190;5.688;2023-06-26T05:07:08;21.10;99.90
23813;DHT22;12087;45.190;5.688;2023-06-26T05:12:34;21.20;99.90
23813;DHT22;12087;45.190;5.688;2023-06-26T05:17:56;21.30;99.90
23813;DHT22;12087;45.190;5.688;2023-06-26T05:23:18;21.30;99.90
23813;DHT22;12087;45.190;5.688;2023-06-26T05:28:44;21.40;99.90
23813;DHT22;12087;45.190;5.688;2023-06-26T05:34:11;21.50;99.90
23813;DHT22;12087;45.190;5.688;2023-06-26T05:39:33;21.50;99.90
23813;DHT22;12087;45.190;5.688;2023-06-26T05:44:57;21.70;99.90
23813;DHT22;12087;45.190;5.688;2023-06-26T05:50:20;21.70;99.90
23813;DHT22;12087;45.190;5.688;2023-06-26T05:55:43;21.80;99.90
23813;DHT22;12087;45.190;5.688;2023-06-26T06:01:06;21.90;99.90
23813;DHT22;12087;45.190;5.688;2023-06-26T06:06:28;22.00;99.90
23813;DHT22;12087;45.190;5.688;2023-06-26T06:11:51;22.10;99.90
23813;DHT22;12087;45.190;5.688;2023-06-26T06:17:14;22.20;99.90
23813;DHT22;12087;45.190;5.688;2023-06-26T06:22:36;22.30;99.90
23813;DHT22;12087;45.190;5.688;2023-06-26T06:27:59;22.40;99.90
23813;DHT22;12087;45.190;5.688;2023-06-26T06:33:22;22.50;99.90
23813;DHT22;12087;45.190;5.688;2023-06-26T06:38:44;22.60;99.90
23813;DHT22;12087;45.190;5.688;2023-06-26T06:44:07;22.70;99.90
23813;DHT22;12087;45.190;5.688;2023-06-26T06:49:30;22.80;99.90
23813;DHT22;12087;45.190;5.688;2023-06-26T06:54:53;22.90;99.90
23813;DHT22;12087;45.190;5.688;2023-06-26T07:00:16;23.00;99.90
23813;DHT22;12087;45.190;5.688;2023-06-26T07:05:41;23.00;99.90
23813;DHT22;12087;45.190;5.688;2023-06-26T07:11:04;23.10;99.90
23813;DHT22;12087;45.190;5.688;2023-06-26T07:16:26;23.20;99.90
23813;DHT22;12087;45.190;5.688;2023-06-26T07:21:50;23.40;99.90
23813;DHT22;12087;45.190;5.688;2023-06-26T07:27:12;23.40;99.90
23813;DHT22;12087;45.190;5.688;2023-06-26T07:32:34;23.50;99.90
23813;DHT22;12087;45.190;5.688;2023-06-26T07:37:58;23.60;99.90
23813;DHT22;12087;45.190;5.688;2023-06-26T07:43:20;23.70;99.90
23813;DHT22;12087;45.190;5.688;2023-06-26T07:48:43;23.80;99.90
23813;DHT22;12087;45.190;5.688;2023-06-26T07:54:07;23.90;99.90
23813;DHT22;12087;45.190;5.688;2023-06-26T07:59:31;24.00;99.90
23813;DHT22;12087;45.190;5.688;2023-06-26T08:04:53;24.10;99.90
23813;DHT22;12087;45.190;5.688;2023-06-26T08:10:16;24.20;99.90
23813;DHT22;12087;45.190;5.688;2023-06-26T08:15:39;24.30;99.90
23813;DHT22;12087;45.190;5.688;2023-06-26T08:21:01;24.40;99.90
23813;DHT22;12087;45.190;5.688;2023-06-26T08:26:24;24.50;99.90
23813;DHT22;12087;45.190;5.688;2023-06-26T08:31:47;24.70;99.90
23813;DHT22;12087;45.190;5.688;2023-06-26T08:37:09;24.80;99.90
23813;DHT22;12087;45.190;5.688;2023-06-26T08:42:32;24.90;99.90
23813;DHT22;12087;45.190;5.688;2023-06-26T08:48:00;25.10;99.90
23813;DHT22;12087;45.190;5.688;2023-06-26T08:53:29;25.50;99.90
23813;DHT22;12087;45.190;5.688;2023-06-26T08:58:57;25.80;99.90
23813;DHT22;12087;45.190;5.688;2023-06-26T09:04:19;26.20;99.90
23813;DHT22;12087;45.190;5.688;2023-06-26T09:09:41;26.80;99.90
23813;DHT22;12087;45.190;5.688;2023-06-26T09:15:06;27.20;99.90
23813;DHT22;12087;45.190;5.688;2023-06-26T09:20:28;27.40;99.90
23813;DHT22;12087;45.190;5.688;2023-06-26T09:25:51;27.70;99.90
23813;DHT22;12087;45.190;5.688;2023-06-26T09:31:15;27.90;99.90
23813;DHT22;12087;45.190;5.688;2023-06-26T09:36:41;28.10;99.90
23813;DHT22;12087;45.190;5.688;2023-06-26T09:42:07;28.30;99.90
23813;DHT22;12087;45.190;5.688;2023-06-26T09:47:32;28.70;99.90
23813;DHT22;12087;45.190;5.688;2023-06-26T09:52:55;28.70;99.90
23813;DHT22;12087;45.190;5.688;2023-06-26T09:58:18;28.70;99.90
23813;DHT22;12087;45.190;5.688;2023-06-26T10:03:43;28.80;99.90
23813;DHT22;12087;45.190;5.688;2023-06-26T10:09:05;29.10;99.90
23813;DHT22;12087;45.190;5.688;2023-06-26T10:14:31;29.30;99.90
23813;DHT22;12087;45.190;5.688;2023-06-26T10:19:58;29.40;99.90
23813;DHT22;12087;45.190;5.688;2023-06-26T10:25:24;29.50;99.90
23813;DHT22;12087;45.190;5.688;2023-06-26T10:30:48;29.50;99.90
23813;DHT22;12087;45.190;5.688;2023-06-26T10:36:18;29.60;99.90
23813;DHT22;12087;45.190;5.688;2023-06-26T10:41:41;29.70;99.90
23813;DHT22;12087;45.190;5.688;2023-06-26T10:47:04;29.90;99.90
23813;DHT22;12087;45.190;5.688;2023-06-26T10:52:28;30.10;99.90
23813;DHT22;12087;45.190;5.688;2023-06-26T10:57:50;30.20;99.80
23813;DHT22;12087;45.190;5.688;2023-06-26T11:03:23;30.40;99.90
23813;DHT22;12087;45.190;5.688;2023-06-26T11:08:47;30.70;99.40
23813;DHT22;12087;45.190;5.688;2023-06-26T11:14:10;30.80;98.90
23813;DHT22;12087;45.190;5.688;2023-06-26T11:19:34;30.90;97.80
23813;DHT22;12087;45.190;5.688;2023-06-26T11:24:59;31.10;97.30
23813;DHT22;12087;45.190;5.688;2023-06-26T11:30:25;31.10;97.80
23813;DHT22;12087;45.190;5.688;2023-06-26T11:35:47;31.20;95.30
23813;DHT22;12087;45.190;5.688;2023-06-26T11:41:17;31.30;96.10
23813;DHT22;12087;45.190;5.688;2023-06-26T11:46:39;31.50;95.50
23813;DHT22;12087;45.190;5.688;2023-06-26T11:52:03;31.60;95.20
23813;DHT22;12087;45.190;5.688;2023-06-26T11:57:26;31.60;95.60
23813;DHT22;12087;45.190;5.688;2023-06-26T12:02:49;31.80;94.50
23813;DHT22;12087;45.190;5.688;2023-06-26T12:08:12;31.90;93.20
23813;DHT22;12087;45.190;5.688;2023-06-26T12:13:36;31.90;93.70
23813;DHT22;12087;45.190;5.688;2023-06-26T12:18:59;32.00;92.50
23813;DHT22;12087;45.190;5.688;2023-06-26T12:24:22;32.20;91.40
23813;DHT22;12087;45.190;5.688;2023-06-26T12:29:50;32.00;92.20
23813;DHT22;12087;45.190;5.688;2023-06-26T12:35:13;32.10;91.80
23813;DHT22;12087;45.190;5.688;2023-06-26T12:40:44;32.10;90.80
23813;DHT22;12087;45.190;5.688;2023-06-26T12:46:08;32.20;92.30
23813;DHT22;12087;45.190;5.688;2023-06-26T12:51:31;32.30;91.10
23813;DHT22;12087;45.190;5.688;2023-06-26T12:56:53;32.50;91.70
23813;DHT22;12087;45.190;5.688;2023-06-26T13:02:16;32.50;91.00
23813;DHT22;12087;45.190;5.688;2023-06-26T13:07:39;32.50;89.50
23813;DHT22;12087;45.190;5.688;2023-06-26T13:13:01;32.40;90.50
23813;DHT22;12087;45.190;5.688;2023-06-26T13:18:25;32.60;89.60
23813;DHT22;12087;45.190;5.688;2023-06-26T13:23:47;32.50;89.50
23813;DHT22;12087;45.190;5.688;2023-06-26T13:29:09;32.50;90.30
23813;DHT22;12087;45.190;5.688;2023-06-26T13:34:33;32.40;88.20
23813;DHT22;12087;45.190;5.688;2023-06-26T13:39:55;32.50;89.60
23813;DHT22;12087;45.190;5.688;2023-06-26T13:45:19;32.50;88.10
23813;DHT22;12087;45.190;5.688;2023-06-26T13:50:43;32.50;89.90
23813;DHT22;12087;45.190;5.688;2023-06-26T13:56:05;32.40;87.20
23813;DHT22;12087;45.190;5.688;2023-06-26T14:01:28;32.20;86.40
23813;DHT22;12087;45.190;5.688;2023-06-26T14:06:52;32.20;86.50
23813;DHT22;12087;45.190;5.688;2023-06-26T14:12:14;32.10;87.10
23813;DHT22;12087;45.190;5.688;2023-06-26T14:17:36;32.20;87.40
23813;DHT22;12087;45.190;5.688;2023-06-26T14:23:02;32.10;86.90
23813;DHT22;12087;45.190;5.688;2023-06-26T14:28:24;31.90;86.40
23813;DHT22;12087;45.190;5.688;2023-06-26T14:33:46;31.70;86.50
23813;DHT22;12087;45.190;5.688;2023-06-26T14:39:10;31.80;87.90
23813;DHT22;12087;45.190;5.688;2023-06-26T14:44:32;31.70;85.10
23813;DHT22;12087;45.190;5.688;2023-06-26T14:49:54;31.60;85.50
23813;DHT22;12087;45.190;5.688;2023-06-26T14:55:18;31.40;84.60
23813;DHT22;12087;45.190;5.688;2023-06-26T15:00:40;31.20;84.20
23813;DHT22;12087;45.190;5.688;2023-06-26T15:06:02;31.00;83.80
23813;DHT22;12087;45.190;5.688;2023-06-26T15:11:27;30.90;85.00
23813;DHT22;12087;45.190;5.688;2023-06-26T15:16:49;30.90;87.60
23813;DHT22;12087;45.190;5.688;2023-06-26T15:22:11;30.90;87.10
23813;DHT22;12087;45.190;5.688;2023-06-26T15:27:35;30.80;85.30
23813;DHT22;12087;45.190;5.688;2023-06-26T15:32:57;30.60;87.40
23813;DHT22;12087;45.190;5.688;2023-06-26T15:38:19;30.60;87.80
23813;DHT22;12087;45.190;5.688;2023-06-26T15:43:42;30.50;88.30
23813;DHT22;12087;45.190;5.688;2023-06-26T15:49:05;30.50;88.20
23813;DHT22;12087;45.190;5.688;2023-06-26T15:54:27;30.40;88.90
23813;DHT22;12087;45.190;5.688;2023-06-26T15:59:51;30.30;87.40
23813;DHT22;12087;45.190;5.688;2023-06-26T16:05:13;30.20;88.40
23813;DHT22;12087;45.190;5.688;2023-06-26T16:10:37;30.10;89.60
23813;DHT22;12087;45.190;5.688;2023-06-26T16:16:01;30.00;89.10
23813;DHT22;12087;45.190;5.688;2023-06-26T16:21:23;29.90;89.40
23813;DHT22;12087;45.190;5.688;2023-06-26T16:26:45;29.90;90.20
23813;DHT22;12087;45.190;5.688;2023-06-26T16:32:09;29.80;87.90
23813;DHT22;12087;45.190;5.688;2023-06-26T16:37:31;29.70;86.80
23813;DHT22;12087;45.190;5.688;2023-06-26T16:42:53;29.60;88.60
23813;DHT22;12087;45.190;5.688;2023-06-26T16:48:17;29.60;90.10
23813;DHT22;12087;45.190;5.688;2023-06-26T16:53:39;29.50;88.00
23813;DHT22;12087;45.190;5.688;2023-06-26T16:59:01;29.40;89.30
23813;DHT22;12087;45.190;5.688;2023-06-26T17:04:25;29.40;89.80
23813;DHT22;12087;45.190;5.688;2023-06-26T17:09:47;29.30;90.40
23813;DHT22;12087;45.190;5.688;2023-06-26T17:15:10;29.20;90.10
23813;DHT22;12087;45.190;5.688;2023-06-26T17:20:34;29.10;90.00
23813;DHT22;12087;45.190;5.688;2023-06-26T17:25:57;29.00;90.20
23813;DHT22;12087;45.190;5.688;2023-06-26T17:31:19;28.80;90.20
23813;DHT22;12087;45.190;5.688;2023-06-26T17:36:43;28.90;90.50
23813;DHT22;12087;45.190;5.688;2023-06-26T17:42:06;28.80;91.30
23813;DHT22;12087;45.190;5.688;2023-06-26T17:47:28;28.80;90.70
23813;DHT22;12087;45.190;5.688;2023-06-26T17:52:52;28.60;91.30
23813;DHT22;12087;45.190;5.688;2023-06-26T17:58:14;28.50;90.60
23813;DHT22;12087;45.190;5.688;2023-06-26T18:03:36;28.30;90.50
23813;DHT22;12087;45.190;5.688;2023-06-26T18:09:00;28.20;90.80
23813;DHT22;12087;45.190;5.688;2023-06-26T18:14:24;28.10;91.00
23813;DHT22;12087;45.190;5.688;2023-06-26T18:19:46;28.00;90.20
23813;DHT22;12087;45.190;5.688;2023-06-26T18:25:10;27.90;90.10
23813;DHT22;12087;45.190;5.688;2023-06-26T18:30:32;27.80;89.70
23813;DHT22;12087;45.190;5.688;2023-06-26T18:35:56;27.80;90.30
23813;DHT22;12087;45.190;5.688;2023-06-26T18:41:19;27.70;90.50
23813;DHT22;12087;45.190;5.688;2023-06-26T18:46:42;27.60;90.80
23813;DHT22;12087;45.190;5.688;2023-06-26T18:52:05;27.60;91.80
23813;DHT22;12087;45.190;5.688;2023-06-26T18:57:28;27.50;91.10
23813;DHT22;12087;45.190;5.688;2023-06-26T19:02:50;27.40;90.90
23813;DHT22;12087;45.190;5.688;2023-06-26T19:08:13;27.40;91.30
23813;DHT22;12087;45.190;5.688;2023-06-26T19:13:36;27.30;91.50
23813;DHT22;12087;45.190;5.688;2023-06-26T19:18:59;27.30;91.10
23813;DHT22;12087;45.190;5.688;2023-06-26T19:24:21;27.20;91.80
23813;DHT22;12087;45.190;5.688;2023-06-26T19:29:45;27.10;91.50
23813;DHT22;12087;45.190;5.688;2023-06-26T19:35:08;27.10;91.70
23813;DHT22;12087;45.190;5.688;2023-06-26T19:40:31;27.00;91.60
23813;DHT22;12087;45.190;5.688;2023-06-26T19:45:55;26.90;91.50
23813;DHT22;12087;45.190;5.688;2023-06-26T19:51:17;26.80;91.60
23813;DHT22;12087;45.190;5.688;2023-06-26T19:56:40;26.80;92.20
23813;DHT22;12087;45.190;5.688;2023-06-26T20:02:04;26.70;92.40
23813;DHT22;12087;45.190;5.688;2023-06-26T20:07:26;26.60;92.50
23813;DHT22;12087;45.190;5.688;2023-06-26T20:12:48;26.50;92.90
23813;DHT22;12087;45.190;5.688;2023-06-26T20:18:13;26.40;92.80
23813;DHT22;12087;45.190;5.688;2023-06-26T20:23:35;26.40;93.60
23813;DHT22;12087;45.190;5.688;2023-06-26T20:28:57;26.30;93.50
23813;DHT22;12087;45.190;5.688;2023-06-26T20:34:21;26.20;93.70
23813;DHT22;12087;45.190;5.688;2023-06-26T20:39:44;26.10;93.70
23813;DHT22;12087;45.190;5.688;2023-06-26T20:45:07;26.10;93.90
23813;DHT22;12087;45.190;5.688;2023-06-26T20:50:32;26.00;93.90
23813;DHT22;12087;45.190;5.688;2023-06-26T20:55:56;26.00;93.90
23813;DHT22;12087;45.190;5.688;2023-06-26T21:01:19;25.90;93.70
23813;DHT22;12087;45.190;5.688;2023-06-26T21:06:42;25.90;93.30
23813;DHT22;12087;45.190;5.688;2023-06-26T21:12:05;25.90;93.30
23813;DHT22;12087;45.190;5.688;2023-06-26T21:17:28;25.80;93.10
23813;DHT22;12087;45.190;5.688;2023-06-26T21:22:51;25.80;93.10
23813;DHT22;12087;45.190;5.688;2023-06-26T21:28:14;25.70;93.10
23813;DHT22;12087;45.190;5.688;2023-06-26T21:33:36;25.60;93.10
23813;DHT22;12087;45.190;5.688;2023-06-26T21:39:00;25.60;93.10
23813;DHT22;12087;45.190;5.688;2023-06-26T21:44:22;25.50;93.30
23813;DHT22;12087;45.190;5.688;2023-06-26T21:49:44;25.50;93.30
23813;DHT22;12087;45.190;5.688;2023-06-26T21:55:08;25.40;93.40
23813;DHT22;12087;45.190;5.688;2023-06-26T22:00:30;25.30;93.30
23813;DHT22;12087;45.190;5.688;2023-06-26T22:05:53;25.30;93.40
23813;DHT22;12087;45.190;5.688;2023-06-26T22:11:16;25.20;93.70
23813;DHT22;12087;45.190;5.688;2023-06-26T22:16:38;25.10;93.60
23813;DHT22;12087;45.190;5.688;2023-06-26T22:22:01;25.10;93.70
23813;DHT22;12087;45.190;5.688;2023-06-26T22:27:25;25.00;93.70
23813;DHT22;12087;45.190;5.688;2023-06-26T22:32:47;25.00;94.40
23813;DHT22;12087;45.190;5.688;2023-06-26T22:38:09;24.90;94.20
23813;DHT22;12087;45.190;5.688;2023-06-26T22:43:33;24.80;94.90
23813;DHT22;12087;45.190;5.688;2023-06-26T22:48:55;24.70;94.70
23813;DHT22;12087;45.190;5.688;2023-06-26T22:54:17;24.60;95.20
23813;DHT22;12087;45.190;5.688;2023-06-26T22:59:41;24.50;95.30
23813;DHT22;12087;45.190;5.688;2023-06-26T23:05:04;24.40;95.40
23813;DHT22;12087;45.190;5.688;2023-06-26T23:10:28;24.40;95.80
23813;DHT22;12087;45.190;5.688;2023-06-26T23:15:51;24.30;95.60
23813;DHT22;12087;45.190;5.688;2023-06-26T23:21:13;24.20;95.90
23813;DHT22;12087;45.190;5.688;2023-06-26T23:26:40;24.10;96.10
23813;DHT22;12087;45.190;5.688;2023-06-26T23:32:05;24.10;96.50
23813;DHT22;12087;45.190;5.688;2023-06-26T23:37:28;24.00;96.50
23813;DHT22;12087;45.190;5.688;2023-06-26T23:42:50;23.90;96.60
23813;DHT22;12087;45.190;5.688;2023-06-26T23:48:14;23.80;97.00
23813;DHT22;12087;45.190;5.688;2023-06-26T23:53:36;23.70;97.20
23813;DHT22;12087;45.190;5.688;2023-06-26T23:58:59;23.60;97.20
